Time;durP1;ratioP1;P1;durP2;ratioP2;P2;SDS_P1;SDS_P2;PMS_P1;PMS_P2;Temp;Humidity;BMP_temperature;BMP_pressure;BME280_temperature;BME280_humidity;BME280_pressure;Samples;Min_cycle;Max_cycle;Signal;HPM_P1;HPM_P2
2023/04/05 00:01:30;;;;;;;43.90;40.05;;;3.60;99.90;;;;;;4965459;28;20049;-79
2023/04/05 00:03:58;;;;;;;48.00;44.03;;;3.50;99.90;;;;;;4979750;28;20046;-79
2023/04/05 00:06:25;;;;;;;67.47;62.58;;;3.60;99.90;;;;;;4991394;28;20034;-78
2023/04/05 00:08:58;;;;;;;62.42;57.50;;;3.70;1.00;;;;;;4990978;28;20044;-79
2023/04/05 00:11:29;;;;;;;55.58;51.45;;;3.40;1.00;;;;;;4993698;28;20165;-79
2023/04/05 00:13:55;;;;;;;53.45;49.40;;;3.60;35.50;;;;;;4985587;28;20041;-79
2023/04/05 00:16:21;;;;;;;47.55;43.90;;;3.60;99.90;;;;;;4973920;28;20038;-79
2023/04/05 00:18:50;;;;;;;53.28;49.15;;;3.30;99.90;;;;;;4990515;28;20041;-79
2023/04/05 00:21:20;;;;;;;53.38;49.58;;;3.30;99.90;;;;;;4991775;28;20490;-79
2023/04/05 00:23:58;;;;;;;74.90;69.43;;;3.40;99.90;;;;;;4967654;28;20034;-79
2023/04/05 00:26:24;;;;;;;55.22;50.53;;;3.50;1.00;;;;;;4967322;28;20046;-79
2023/04/05 00:28:51;;;;;;;43.42;39.92;;;3.40;1.00;;;;;;4993124;28;20044;-79
2023/04/05 00:31:17;;;;;;;49.58;45.63;;;3.50;22.90;;;;;;4973537;28;20056;-79
2023/04/05 00:33:43;;;;;;;73.85;68.88;;;3.60;99.90;;;;;;4991744;28;20572;-79
2023/04/05 00:36:10;;;;;;;48.60;44.58;;;3.70;99.90;;;;;;4965015;28;20048;-79
2023/04/05 00:38:35;;;;;;;55.40;50.90;;;3.50;99.90;;;;;;4992786;28;20085;-79
2023/04/05 00:41:01;;;;;;;51.00;47.05;;;3.50;99.90;;;;;;4992449;28;20100;-79
2023/04/05 00:43:27;;;;;;;52.00;47.75;;;3.30;99.90;;;;;;4974335;28;20042;-79
2023/04/05 00:45:53;;;;;;;60.38;55.92;;;3.50;1.00;;;;;;4987812;28;20556;-79
2023/04/05 00:48:19;;;;;;;60.10;55.75;;;3.60;1.00;;;;;;4957467;28;20421;-79
2023/04/05 00:50:48;;;;;;;50.20;46.28;;;3.60;1.00;;;;;;4971876;28;20078;-79
2023/04/05 00:53:15;;;;;;;60.80;56.47;;;3.60;1.50;;;;;;4973533;28;20034;-79
2023/04/05 00:55:41;;;;;;;46.50;42.95;;;3.30;29.40;;;;;;4977625;28;20547;-79
2023/04/05 00:58:08;;;;;;;47.65;43.60;;;3.50;94.50;;;;;;4990241;28;20073;-79
2023/04/05 01:00:37;;;;;;;51.53;47.47;;;3.40;99.90;;;;;;4991998;28;20069;-79
2023/04/05 01:03:05;;;;;;;52.53;48.80;;;3.50;99.90;;;;;;4973848;28;20781;-79
2023/04/05 01:05:46;;;;;;;48.13;44.65;;;3.50;99.90;;;;;;4972745;28;20042;-79
2023/04/05 01:08:43;;;;;;;50.25;46.20;;;3.60;99.90;;;;;;4973150;28;20042;-79
2023/04/05 01:11:10;;;;;;;37.65;34.28;;;3.60;99.90;;;;;;4972897;28;20537;-79
2023/04/05 01:13:36;;;;;;;36.13;33.00;;;3.20;99.90;;;;;;4963294;28;20045;-79
2023/04/05 01:16:02;;;;;;;34.15;31.48;;;3.20;99.90;;;;;;4968347;28;20038;-79
2023/04/05 01:18:31;;;;;;;44.22;40.60;;;3.40;99.90;;;;;;4957063;28;20069;-79
2023/04/05 01:21:17;;;;;;;30.63;28.35;;;3.10;99.90;;;;;;4971468;28;20262;-79
2023/04/05 01:24:08;;;;;;;33.43;30.73;;;3.10;44.00;;;;;;5007468;28;20038;-79
2023/04/05 01:27:05;;;;;;;32.13;29.13;;;3.10;1.00;;;;;;4988182;28;20285;-79
2023/04/05 01:30:04;;;;;;;33.35;30.17;;;2.90;1.00;;;;;;4957180;28;20038;-79
2023/04/05 01:32:49;;;;;;;38.08;34.95;;;3.00;1.00;;;;;;4962464;28;20045;-79
2023/04/05 01:35:34;;;;;;;32.22;29.83;;;2.80;1.00;;;;;;4957027;28;20038;-79
2023/04/05 01:38:02;;;;;;;36.67;33.63;;;2.40;1.00;;;;;;4957860;28;20062;-79
2023/04/05 01:40:32;;;;;;;29.38;26.90;;;2.20;1.00;;;;;;4978978;28;20065;-79
2023/04/05 01:43:01;;;;;;;29.98;27.08;;;2.00;1.00;;;;;;4968710;28;20081;-79
2023/04/05 01:45:27;;;;;;;38.78;35.10;;;3.90;1.00;;;;;;4992277;28;20069;-79
2023/04/05 01:47:53;;;;;;;29.30;26.73;;;1.90;28.90;;;;;;4992211;28;20110;-79
2023/04/05 01:50:19;;;;;;;30.38;27.75;;;2.40;99.90;;;;;;4991829;28;20084;-79
2023/04/05 01:52:45;;;;;;;30.77;28.05;;;3.60;99.90;;;;;;4989538;28;20092;-79
2023/04/05 01:55:10;;;;;;;30.30;27.55;;;2.30;99.90;;;;;;4995935;28;20462;-79
2023/04/05 01:57:37;;;;;;;33.65;30.50;;;2.50;1.00;;;;;;4996025;28;20117;-79
2023/04/05 02:00:03;;;;;;;28.85;26.13;;;2.00;1.00;;;;;;4995823;28;20038;-79
2023/04/05 02:02:29;;;;;;;37.00;34.00;;;2.40;60.20;;;;;;4985268;28;20046;-79
2023/04/05 02:04:54;;;;;;;29.30;26.58;;;2.40;99.90;;;;;;4982106;28;20068;-79
2023/04/05 02:07:20;;;;;;;26.48;24.05;;;2.10;99.90;;;;;;4976638;28;20042;-79
2023/04/05 02:09:45;;;;;;;34.42;31.33;;;2.00;1.00;;;;;;4976589;28;20062;-79
2023/04/05 02:12:11;;;;;;;26.90;24.48;;;2.00;1.00;;;;;;4981123;28;20148;-78
2023/04/05 02:14:37;;;;;;;30.83;28.27;;;2.20;99.90;;;;;;4994819;28;20041;-79
2023/04/05 02:17:02;;;;;;;31.38;28.58;;;2.50;99.90;;;;;;4995369;28;20111;-79
2023/04/05 02:19:28;;;;;;;28.25;25.20;;;2.40;99.90;;;;;;4995868;28;20526;-79
2023/04/05 02:21:54;;;;;;;26.90;24.58;;;2.50;99.90;;;;;;4988263;28;20118;-79
2023/04/05 02:24:20;;;;;;;27.77;25.33;;;2.30;1.00;;;;;;4977612;28;20133;-79
2023/04/05 02:26:46;;;;;;;24.48;21.65;;;2.20;1.00;;;;;;4976015;28;20075;-79
2023/04/05 02:29:12;;;;;;;27.52;24.95;;;1.90;1.00;;;;;;4978230;28;20038;-79
2023/04/05 02:31:37;;;;;;;26.70;22.05;;;2.20;38.80;;;;;;4973919;28;20042;-79
2023/04/05 02:34:04;;;;;;;26.17;23.73;;;1.90;99.90;;;;;;4992694;28;20049;-79
2023/04/05 02:36:30;;;;;;;26.42;23.63;;;1.70;99.90;;;;;;4972127;28;20078;-79
2023/04/05 02:38:55;;;;;;;23.85;21.85;;;1.90;99.90;;;;;;4976134;28;20132;-79
2023/04/05 02:41:22;;;;;;;24.38;21.95;;;1.60;1.00;;;;;;4976244;28;20050;-79
2023/04/05 02:43:49;;;;;;;27.20;24.83;;;2.20;1.00;;;;;;4971002;28;20129;-79
2023/04/05 02:46:14;;;;;;;25.30;22.98;;;1.90;44.30;;;;;;4994682;28;20044;-79
2023/04/05 02:48:40;;;;;;;28.83;26.25;;;2.20;99.90;;;;;;4978737;28;20042;-79
2023/04/05 02:51:06;;;;;;;27.40;22.88;;;2.30;99.90;;;;;;4976943;28;20173;-79
2023/04/05 02:53:31;;;;;;;31.90;28.98;;;2.40;99.90;;;;;;4962305;28;20042;-79
2023/04/05 02:55:58;;;;;;;32.85;29.42;;;2.50;99.90;;;;;;4959350;28;20553;-79
2023/04/05 02:58:24;;;;;;;26.35;23.80;;;1.90;99.90;;;;;;4975412;28;20054;-79
2023/04/05 03:00:51;;;;;;;29.17;26.30;;;2.20;99.90;;;;;;4974649;28;20502;-79
2023/04/05 03:03:21;;;;;;;26.83;24.02;;;1.90;1.00;;;;;;4992169;28;20124;-79
2023/04/05 03:05:48;;;;;;;27.98;25.42;;;2.00;1.00;;;;;;4989330;28;20042;-79
2023/04/05 03:08:18;;;;;;;29.10;26.45;;;2.60;1.00;;;;;;4958942;28;20042;-79
2023/04/05 03:10:47;;;;;;;25.67;23.15;;;2.10;1.00;;;;;;4959237;28;20057;-79
2023/04/05 03:13:16;;;;;;;29.25;26.52;;;2.00;1.00;;;;;;4977196;28;20243;-79
2023/04/05 03:15:42;;;;;;;23.85;21.65;;;2.50;1.00;;;;;;4977218;28;20046;-79
2023/04/05 03:18:08;;;;;;;25.08;22.58;;;2.20;1.00;;;;;;4994439;28;20045;-79
2023/04/05 03:20:38;;;;;;;25.80;23.30;;;2.00;1.00;;;;;;4976710;28;20088;-79
2023/04/05 03:23:07;;;;;;;24.00;21.63;;;1.90;1.00;;;;;;4989295;28;20074;-79
2023/04/05 03:25:37;;;;;;;26.15;23.58;;;2.30;1.00;;;;;;4959720;28;20038;-79
2023/04/05 03:28:04;;;;;;;28.00;25.00;;;2.10;1.00;;;;;;4993877;28;20037;-79
2023/04/05 03:30:34;;;;;;;28.65;25.90;;;3.90;1.00;;;;;;4994191;28;20166;-79
2023/04/05 03:33:00;;;;;;;32.17;29.40;;;2.30;1.00;;;;;;4974068;28;20042;-79
2023/04/05 03:35:28;;;;;;;28.25;25.27;;;2.50;1.00;;;;;;4980679;28;20057;-79
2023/04/05 03:37:54;;;;;;;32.42;26.23;;;2.50;1.00;;;;;;4974162;28;20058;-79
2023/04/05 03:40:19;;;;;;;28.20;25.27;;;1.90;1.00;;;;;;4974828;28;20054;-79
2023/04/05 03:42:45;;;;;;;30.73;24.90;;;2.50;1.00;;;;;;4976549;28;20042;-79
2023/04/05 03:45:11;;;;;;;27.85;25.17;;;2.60;1.00;;;;;;4977838;28;20038;-78
2023/04/05 03:47:36;;;;;;;23.52;20.88;;;2.50;1.00;;;;;;4977204;28;20058;-79
2023/04/05 03:50:03;;;;;;;29.90;26.98;;;2.60;1.00;;;;;;4992766;28;20038;-79
2023/04/05 03:52:29;;;;;;;30.13;27.48;;;2.40;1.00;;;;;;4988397;28;20319;-79
2023/04/05 03:54:54;;;;;;;23.90;21.52;;;2.00;1.00;;;;;;4976638;28;20049;-79
2023/04/05 03:57:20;;;;;;;27.25;24.48;;;2.30;1.00;;;;;;4973540;28;20148;-79
2023/04/05 03:59:46;;;;;;;22.45;20.02;;;2.20;1.00;;;;;;4964234;28;20550;-79
2023/04/05 04:02:11;;;;;;;31.00;28.10;;;2.00;1.00;;;;;;4982170;28;20418;-79
2023/04/05 04:04:37;;;;;;;25.35;23.08;;;2.00;1.00;;;;;;4985226;28;20049;-79
2023/04/05 04:07:02;;;;;;;20.67;18.85;;;2.20;1.00;;;;;;4974175;28;20037;-79
2023/04/05 04:09:28;;;;;;;25.40;22.70;;;2.00;1.00;;;;;;4974098;28;20057;-79
2023/04/05 04:11:55;;;;;;;23.90;20.58;;;2.40;1.00;;;;;;4974276;28;20054;-79
2023/04/05 04:14:21;;;;;;;26.20;23.63;;;2.20;1.00;;;;;;4986689;28;20049;-79
2023/04/05 04:16:47;;;;;;;25.05;22.65;;;2.00;1.00;;;;;;4992290;28;20137;-79
2023/04/05 04:19:12;;;;;;;26.35;21.83;;;2.50;1.00;;;;;;4993196;28;20173;-79
2023/04/05 04:21:38;;;;;;;30.05;27.05;;;2.00;1.00;;;;;;4991766;28;20521;-79
2023/04/05 04:24:04;;;;;;;28.92;23.50;;;2.50;1.00;;;;;;4969709;28;20391;-79
2023/04/05 04:26:36;;;;;;;26.45;24.08;;;2.50;1.00;;;;;;4958647;28;20043;-79
2023/04/05 04:29:05;;;;;;;24.58;22.13;;;2.30;1.00;;;;;;4974061;28;20081;-79
2023/04/05 04:31:32;;;;;;;25.45;22.98;;;2.50;1.00;;;;;;4983972;28;20077;-79
2023/04/05 04:33:58;;;;;;;24.73;22.23;;;2.40;1.00;;;;;;4985111;28;20520;-79
2023/04/05 04:36:25;;;;;;;24.35;22.08;;;2.40;1.00;;;;;;4990355;28;20128;-79
2023/04/05 04:38:52;;;;;;;25.45;22.83;;;1.80;1.00;;;;;;4992776;28;20062;-79
2023/04/05 04:41:18;;;;;;;27.52;24.75;;;2.30;1.00;;;;;;4982768;28;20054;-79
2023/04/05 04:43:44;;;;;;;26.15;23.77;;;1.80;1.00;;;;;;4969177;28;20565;-79
2023/04/05 04:46:13;;;;;;;28.85;26.17;;;1.80;1.00;;;;;;4957074;28;20158;-79
2023/04/05 04:48:41;;;;;;;30.98;28.17;;;2.50;1.00;;;;;;4974092;28;20058;-79
2023/04/05 04:51:06;;;;;;;34.60;24.00;;;2.50;1.00;;;;;;4972608;28;20056;-79
2023/04/05 04:53:32;;;;;;;27.20;24.40;;;2.10;1.00;;;;;;4990291;28;20046;-79
2023/04/05 04:55:58;;;;;;;34.40;31.35;;;2.10;1.00;;;;;;4973234;28;20502;-79
2023/04/05 04:58:23;;;;;;;28.38;25.48;;;2.10;1.00;;;;;;4966799;28;20458;-79
2023/04/05 05:00:51;;;;;;;33.60;30.55;;;1.70;1.00;;;;;;4982146;28;20444;-79
2023/04/05 05:03:17;;;;;;;38.53;34.80;;;2.40;1.00;;;;;;4957661;28;20038;-79
2023/04/05 05:05:45;;;;;;;31.52;28.45;;;2.20;1.00;;;;;;4971943;28;20049;-79
2023/04/05 05:08:11;;;;;;;34.92;31.40;;;2.50;6.60;;;;;;4973434;28;20132;-79
2023/04/05 05:10:37;;;;;;;26.58;23.75;;;2.40;27.90;;;;;;5005249;28;20037;-79
2023/04/05 05:13:03;;;;;;;25.80;23.17;;;2.30;60.30;;;;;;4976476;28;20046;-79
2023/04/05 05:15:28;;;;;;;29.92;25.05;;;2.30;73.40;;;;;;4991541;28;20124;-79
2023/04/05 05:17:54;;;;;;;23.30;20.95;;;2.10;70.60;;;;;;4992348;28;20052;-79
2023/04/05 05:20:20;;;;;;;24.67;21.33;;;2.20;60.00;;;;;;4979743;28;20080;-79
2023/04/05 05:22:45;;;;;;;24.05;21.55;;;2.00;44.80;;;;;;4972336;28;20108;-79
2023/04/05 05:25:11;;;;;;;26.92;22.35;;;1.90;33.00;;;;;;4971572;28;20437;-79
2023/04/05 05:27:37;;;;;;;26.05;23.38;;;2.20;22.80;;;;;;4992072;28;20048;-79
2023/04/05 05:30:04;;;;;;;26.58;22.73;;;1.90;15.30;;;;;;4987853;28;20553;-79
2023/04/05 05:32:29;;;;;;;29.02;22.65;;;2.30;18.30;;;;;;4976930;28;20134;-79
2023/04/05 05:34:55;;;;;;;31.40;25.15;;;2.30;14.40;;;;;;4989193;28;20129;-79
2023/04/05 05:37:28;;;;;;;27.70;23.42;;;2.10;15.00;;;;;;4994647;28;20520;-79
2023/04/05 05:39:54;;;;;;;27.13;24.23;;;1.90;20.50;;;;;;4986320;28;20045;-79
2023/04/05 05:42:20;;;;;;;23.98;20.50;;;2.60;34.80;;;;;;4976672;28;20049;-79
2023/04/05 05:44:45;;;;;;;28.17;24.42;;;2.30;37.10;;;;;;4987450;28;20471;-79
2023/04/05 05:47:11;;;;;;;27.77;24.92;;;2.50;40.10;;;;;;4965944;28;20049;-79
2023/04/05 05:49:37;;;;;;;27.40;24.55;;;2.60;44.30;;;;;;4977034;28;20318;-79
2023/04/05 05:52:03;;;;;;;33.80;24.60;;;2.90;45.80;;;;;;4990573;28;20137;-79
2023/04/05 05:54:28;;;;;;;28.63;25.42;;;2.10;40.20;;;;;;4992491;28;20042;-79
2023/04/05 05:56:54;;;;;;;27.35;24.48;;;2.20;30.00;;;;;;4996488;28;20412;-79
2023/04/05 05:59:20;;;;;;;32.72;29.25;;;2.70;23.50;;;;;;4986046;28;20545;-79
2023/04/05 06:01:45;;;;;;;30.05;27.08;;;2.50;11.90;;;;;;4986324;28;20050;-79
2023/04/05 06:04:12;;;;;;;33.35;25.00;;;2.10;5.90;;;;;;4987094;28;20026;-79
2023/04/05 06:06:39;;;;;;;31.40;27.25;;;2.20;2.10;;;;;;4983145;28;20069;-79
2023/04/05 06:09:05;;;;;;;35.63;25.98;;;2.30;1.00;;;;;;4974767;28;20034;-79
2023/04/05 06:11:30;;;;;;;27.80;25.05;;;2.80;1.00;;;;;;4985968;28;20115;-79
2023/04/05 06:13:56;;;;;;;38.50;27.42;;;2.40;1.90;;;;;;4968161;28;20034;-80
2023/04/05 06:16:22;;;;;;;31.25;27.88;;;2.80;7.90;;;;;;4973447;28;20046;-79
2023/04/05 06:18:48;;;;;;;38.15;25.55;;;2.40;7.90;;;;;;4983574;28;20081;-80
2023/04/05 06:21:14;;;;;;;27.85;24.92;;;2.90;12.10;;;;;;4964707;28;20449;-79
2023/04/05 06:23:41;;;;;;;27.77;24.92;;;2.90;23.40;;;;;;4968499;28;20049;-80
2023/04/05 06:26:19;;;;;;;29.35;25.42;;;3.00;37.70;;;;;;4994200;28;20489;-80
2023/04/05 06:28:46;;;;;;;31.35;28.00;;;3.10;60.30;;;;;;4985788;28;20041;-80
2023/04/05 06:31:15;;;;;;;42.45;38.53;;;3.10;88.40;;;;;;4962847;28;20391;-80
2023/04/05 06:33:41;;;;;;;36.20;33.05;;;3.20;99.90;;;;;;4964108;28;20472;-80
2023/04/05 06:36:07;;;;;;;43.13;36.28;;;3.10;99.90;;;;;;4989900;28;20069;-80
2023/04/05 06:38:32;;;;;;;33.80;30.60;;;3.10;99.90;;;;;;4972881;28;20065;-79
2023/04/05 06:40:58;;;;;;;35.92;32.75;;;3.60;99.90;;;;;;4979266;28;20045;-80
2023/04/05 06:43:23;;;;;;;38.78;34.85;;;3.70;99.90;;;;;;4969437;28;20106;-79
2023/04/05 06:45:49;;;;;;;34.58;30.80;;;3.30;99.90;;;;;;4969866;28;20091;-80
2023/04/05 06:48:14;;;;;;;38.78;35.03;;;3.40;99.90;;;;;;4974779;28;20050;-81
2023/04/05 06:50:40;;;;;;;31.70;27.02;;;3.90;99.90;;;;;;4982442;28;20042;-80
2023/04/05 06:53:06;;;;;;;30.98;26.63;;;3.60;99.90;;;;;;4979840;28;20101;-80
2023/04/05 06:55:32;;;;;;;47.63;42.80;;;3.50;99.90;;;;;;4965670;28;20053;-81
2023/04/05 06:57:58;;;;;;;35.03;31.50;;;3.50;99.90;;;;;;4964380;28;20168;-80
2023/04/05 07:00:23;;;;;;;60.60;54.83;;;3.70;99.90;;;;;;4968647;28;20069;-79
2023/04/05 07:02:49;;;;;;;45.50;41.03;;;3.70;99.90;;;;;;4989189;28;20192;-81
2023/04/05 07:05:15;;;;;;;47.88;43.30;;;4.20;99.90;;;;;;4965665;28;20556;-81
2023/04/05 07:07:43;;;;;;;43.90;39.20;;;4.40;99.90;;;;;;4966022;28;20033;-81
2023/04/05 07:10:09;;;;;;;53.22;47.78;;;4.60;99.90;;;;;;4965265;28;20473;-81
2023/04/05 07:12:35;;;;;;;50.67;46.03;;;4.10;99.90;;;;;;4964591;28;20045;-81
2023/04/05 07:15:01;;;;;;;43.05;39.03;;;4.30;99.90;;;;;;4968325;28;20491;-81
2023/04/05 07:17:26;;;;;;;44.38;39.83;;;4.60;99.90;;;;;;4974552;28;20037;-82
2023/04/05 07:19:52;;;;;;;47.90;42.90;;;4.60;99.90;;;;;;4964474;28;20306;-82
2023/04/05 07:22:17;;;;;;;46.65;41.95;;;4.60;99.90;;;;;;4966337;28;20133;-82
2023/04/05 07:24:47;;;;;;;49.10;44.13;;;4.40;99.90;;;;;;4969434;28;20046;-82
2023/04/05 07:27:13;;;;;;;49.03;43.97;;;4.60;99.90;;;;;;4993708;28;20057;-81
2023/04/05 07:29:41;;;;;;;41.72;37.97;;;5.10;98.30;;;;;;4993890;28;20046;-81
2023/04/05 07:32:07;;;;;;;48.30;43.72;;;4.90;99.90;;;;;;4991079;28;20053;-81
2023/04/05 07:34:34;;;;;;;38.58;34.80;;;4.90;99.90;;;;;;5005325;28;20505;-81
2023/04/05 07:37:00;;;;;;;55.47;50.30;;;5.20;99.90;;;;;;4986782;28;20034;-81
2023/04/05 07:39:25;;;;;;;34.30;30.88;;;5.40;99.90;;;;;;4976972;28;20092;-81
2023/04/05 07:41:51;;;;;;;39.88;36.05;;;6.20;99.90;;;;;;4977558;28;20038;-81
2023/04/05 07:44:17;;;;;;;45.88;41.08;;;5.40;74.00;;;;;;4995782;28;20041;-82
2023/04/05 07:46:45;;;;;;;36.05;32.22;;;5.80;28.60;;;;;;4978532;28;20058;-80
2023/04/05 07:49:11;;;;;;;43.80;39.38;;;5.90;1.00;;;;;;4994050;28;20038;-80
2023/04/05 07:51:37;;;;;;;43.75;39.72;;;6.00;1.00;;;;;;4973079;28;20049;-81
2023/04/05 07:54:06;;;;;;;38.50;34.70;;;5.90;99.90;;;;;;4981338;28;20046;-80
2023/04/05 07:56:32;;;;;;;39.90;36.05;;;6.00;99.90;;;;;;4975029;28;20037;-80
2023/04/05 07:58:58;;;;;;;32.33;27.98;;;6.40;99.90;;;;;;4977444;28;20037;-81
2023/04/05 08:01:26;;;;;;;30.80;27.83;;;7.10;1.00;;;;;;4988979;28;20394;-81
2023/04/05 08:03:52;;;;;;;25.00;22.50;;;7.30;1.00;;;;;;4968562;28;20034;-80
2023/04/05 08:06:18;;;;;;;37.15;33.65;;;7.70;2.10;;;;;;4985408;28;20038;-80
2023/04/05 08:08:45;;;;;;;55.83;50.47;;;8.20;99.90;;;;;;4993323;28;20465;-81
2023/04/05 08:11:11;;;;;;;38.78;35.38;;;8.60;99.90;;;;;;4985894;28;20498;-80
2023/04/05 08:13:38;;;;;;;35.88;32.60;;;9.10;99.90;;;;;;4982845;28;20043;-81
2023/04/05 08:16:04;;;;;;;26.10;21.95;;;9.30;99.90;;;;;;4989169;28;20077;-81
2023/04/05 08:18:30;;;;;;;23.95;20.27;;;9.40;99.90;;;;;;4980900;28;20405;-80
2023/04/05 08:20:56;;;;;;;20.75;18.65;;;9.70;69.80;;;;;;5005346;28;20046;-80
2023/04/05 08:23:22;;;;;;;18.30;15.55;;;10.00;99.90;;;;;;4996303;28;20046;-80
2023/04/05 08:25:48;;;;;;;18.27;16.08;;;10.30;99.90;;;;;;4990172;28;20512;-81
2023/04/05 08:28:14;;;;;;;15.93;10.23;;;10.30;99.90;;;;;;4963993;28;20060;-81
2023/04/05 08:30:41;;;;;;;13.25;11.95;;;10.40;99.90;;;;;;4964421;28;20159;-80
2023/04/05 08:33:07;;;;;;;12.85;11.50;;;10.70;1.00;;;;;;4986341;28;20045;-80
2023/04/05 08:35:35;;;;;;;16.23;11.05;;;10.90;1.00;;;;;;4982034;28;20540;-81
2023/04/05 08:38:01;;;;;;;12.02;9.32;;;10.90;99.90;;;;;;4982034;28;20473;-81
2023/04/05 08:40:41;;;;;;;16.10;10.40;;;11.00;99.90;;;;;;4982578;28;20037;-81
2023/04/05 08:43:22;;;;;;;13.32;10.02;;;11.30;1.00;;;;;;4987361;28;20072;-79
2023/04/05 08:45:52;;;;;;;11.15;8.88;;;11.40;1.00;;;;;;4992362;28;20052;-80
2023/04/05 08:48:19;;;;;;;16.52;12.00;;;11.80;99.90;;;;;;4992419;28;20088;-80
2023/04/05 08:50:52;;;;;;;12.27;9.88;;;12.00;99.90;;;;;;4991308;28;20042;-80
2023/04/05 08:53:18;;;;;;;13.70;8.27;;;11.90;99.90;;;;;;4992806;28;20636;-80
2023/04/05 08:55:48;;;;;;;12.20;7.75;;;13.00;99.90;;;;;;4993006;28;20052;-80
2023/04/05 08:58:15;;;;;;;11.10;8.35;;;11.70;69.10;;;;;;4984194;28;20042;-80
2023/04/05 09:00:41;;;;;;;11.38;8.82;;;11.90;29.30;;;;;;4976152;28;20045;-80
2023/04/05 09:03:15;;;;;;;12.23;9.65;;;12.00;10.80;;;;;;4971455;28;20053;-79
2023/04/05 09:05:45;;;;;;;13.35;8.60;;;11.90;1.00;;;;;;4971805;28;20049;-80
2023/04/05 09:08:11;;;;;;;11.27;9.35;;;11.90;1.00;;;;;;4980746;28;20038;-80
2023/04/05 09:10:37;;;;;;;15.32;9.23;;;12.30;1.00;;;;;;4989330;28;20035;-81
2023/04/05 09:13:03;;;;;;;11.63;8.38;;;12.50;1.00;;;;;;4963486;28;20046;-81
2023/04/05 09:15:29;;;;;;;16.35;8.70;;;12.60;1.00;;;;;;4976005;28;20405;-81
2023/04/05 09:17:55;;;;;;;14.90;8.68;;;12.70;1.00;;;;;;4992262;28;20038;-81
2023/04/05 09:20:22;;;;;;;12.45;6.90;;;12.40;1.00;;;;;;4984099;28;20092;-81
2023/04/05 09:22:47;;;;;;;11.18;8.63;;;12.60;1.00;;;;;;4992159;28;20540;-81
2023/04/05 09:25:41;;;;;;;9.40;7.07;;;12.70;1.00;;;;;;4983663;28;20039;-81
2023/04/05 09:28:07;;;;;;;11.20;9.35;;;12.70;1.00;;;;;;4968593;28;20049;-81
2023/04/05 09:30:35;;;;;;;12.38;8.63;;;12.70;1.00;;;;;;4991889;28;20053;-80
2023/04/05 09:33:02;;;;;;;11.10;8.48;;;12.60;1.00;;;;;;4992259;28;20146;-81
2023/04/05 09:35:29;;;;;;;10.63;7.80;;;12.40;1.00;;;;;;4970940;28;20083;-81
2023/04/05 09:37:56;;;;;;;12.38;7.72;;;12.40;1.00;;;;;;4984838;28;20371;-80
2023/04/05 09:40:22;;;;;;;11.23;8.27;;;12.60;1.00;;;;;;4992155;28;20084;-81
2023/04/05 09:42:48;;;;;;;12.77;9.02;;;12.60;1.00;;;;;;4991907;28;20528;-81
2023/04/05 09:45:15;;;;;;;9.50;6.38;;;13.00;1.00;;;;;;4991295;28;20034;-81
2023/04/05 09:47:41;;;;;;;13.32;9.45;;;13.00;1.00;;;;;;4975466;28;20050;-81
2023/04/05 09:50:15;;;;;;;12.57;9.75;;;12.70;1.00;;;;;;4991503;28;20125;-80
2023/04/05 09:52:42;;;;;;;13.00;9.38;;;12.80;1.00;;;;;;4990988;28;20045;-80
2023/04/05 09:55:09;;;;;;;14.05;8.43;;;12.50;1.00;;;;;;4991629;28;20077;-80
2023/04/05 09:57:37;;;;;;;13.50;9.18;;;12.40;1.00;;;;;;4992195;28;20045;-80
2023/04/05 10:00:04;;;;;;;11.90;9.15;;;12.20;1.00;;;;;;4972750;28;20042;-81
2023/04/05 10:02:38;;;;;;;14.05;9.23;;;12.40;1.00;;;;;;4972397;28;20042;-81
2023/04/05 10:05:12;;;;;;;13.52;10.82;;;12.40;1.00;;;;;;4972177;28;20035;-81
2023/04/05 10:07:41;;;;;;;14.45;10.30;;;12.20;1.00;;;;;;4971960;28;20078;-81
2023/04/05 10:10:09;;;;;;;19.95;9.45;;;11.80;1.00;;;;;;4991961;28;20056;-81
2023/04/05 10:12:37;;;;;;;13.38;10.77;;;11.50;1.00;;;;;;4975577;28;20033;-81
2023/04/05 10:15:04;;;;;;;12.52;10.30;;;11.40;1.00;;;;;;4993736;28;20158;-81
2023/04/05 10:17:54;;;;;;;16.98;15.30;;;11.60;1.00;;;;;;4993571;28;20044;-81
2023/04/05 10:20:24;;;;;;;20.70;15.23;;;11.50;1.00;;;;;;4975486;28;20046;-81
2023/04/05 10:22:59;;;;;;;15.85;13.65;;;11.60;1.00;;;;;;4976206;28;20047;-80
2023/04/05 10:25:50;;;;;;;15.30;13.70;;;11.50;1.00;;;;;;4979097;28;20038;-80
2023/04/05 10:28:26;;;;;;;14.07;10.68;;;11.50;1.00;;;;;;4994799;28;20405;-81
2023/04/05 10:31:01;;;;;;;15.75;10.63;;;11.50;1.00;;;;;;4967320;28;20046;-80
2023/04/05 10:33:30;;;;;;;13.48;10.88;;;11.50;1.00;;;;;;4980678;28;20121;-81
2023/04/05 10:36:11;;;;;;;13.85;10.50;;;11.60;1.00;;;;;;4977073;28;20069;-80
2023/04/05 10:39:03;;;;;;;14.10;12.60;;;11.60;1.00;;;;;;4985927;28;20493;-80
2023/04/05 10:41:51;;;;;;;17.15;12.18;;;11.70;1.00;;;;;;4988098;28;20050;-82
2023/04/05 10:44:17;;;;;;;15.45;11.38;;;11.60;1.00;;;;;;4976791;28;20038;-82
2023/04/05 10:46:44;;;;;;;17.88;15.98;;;11.60;1.00;;;;;;4980700;28;20041;-81
2023/04/05 10:49:21;;;;;;;15.45;12.70;;;11.30;1.00;;;;;;4994554;28;20052;-81
2023/04/05 10:51:47;;;;;;;15.13;12.27;;;11.20;1.00;;;;;;4989893;28;20057;-81
2023/04/05 10:54:16;;;;;;;16.25;12.10;;;11.20;1.00;;;;;;4993499;28;20049;-82
2023/04/05 10:56:42;;;;;;;15.40;12.20;;;11.40;1.00;;;;;;4978285;28;20052;-82
2023/04/05 10:59:10;;;;;;;17.75;15.77;;;11.60;1.00;;;;;;4994825;28;20053;-82
2023/04/05 11:01:37;;;;;;;12.93;11.43;;;13.10;1.00;;;;;;4975541;28;20052;-82
2023/04/05 11:04:16;;;;;;;17.95;12.10;;;11.60;1.00;;;;;;4986665;28;20038;-82
2023/04/05 11:06:42;;;;;;;14.15;10.95;;;11.70;1.00;;;;;;4961846;28;20126;-82
2023/04/05 11:09:14;;;;;;;12.13;10.05;;;13.10;1.00;;;;;;4994344;28;20526;-81
2023/04/05 11:11:45;;;;;;;13.45;11.13;;;11.90;1.00;;;;;;4978039;28;20403;-81
2023/04/05 11:14:17;;;;;;;15.38;13.85;;;12.60;1.00;;;;;;4991354;28;20042;-81
2023/04/05 11:16:46;;;;;;;18.13;16.20;;;13.60;1.00;;;;;;4984099;28;20038;-80
2023/04/05 11:19:11;;;;;;;14.40;11.50;;;12.60;1.00;;;;;;4979116;28;20065;-80
2023/04/05 11:21:37;;;;;;;21.60;19.17;;;11.90;1.00;;;;;;4991786;28;20140;-81
2023/04/05 11:24:08;;;;;;;20.85;18.73;;;11.60;1.00;;;;;;4992055;28;20050;-81
2023/04/05 11:26:39;;;;;;;15.32;11.70;;;11.40;1.00;;;;;;4977587;28;20061;-81
2023/04/05 11:29:06;;;;;;;15.30;12.25;;;11.10;1.00;;;;;;4959259;28;20521;-81
2023/04/05 11:31:32;;;;;;;15.60;11.95;;;11.80;1.00;;;;;;4974857;28;20121;-81
2023/04/05 11:34:11;;;;;;;13.25;11.13;;;12.60;1.00;;;;;;4993688;28;20207;-81
2023/04/05 11:36:46;;;;;;;13.20;11.38;;;10.90;1.00;;;;;;4961139;28;20038;-82
2023/04/05 11:39:18;;;;;;;22.52;20.23;;;11.60;1.00;;;;;;4993028;28;20129;-82
2023/04/05 11:41:52;;;;;;;17.92;16.13;;;11.30;1.00;;;;;;4975561;28;20286;-82
2023/04/05 11:44:18;;;;;;;17.92;15.48;;;11.00;1.00;;;;;;4993145;28;20053;-81
2023/04/05 11:46:45;;;;;;;14.32;10.93;;;11.00;1.00;;;;;;4987328;28;20038;-81
2023/04/05 11:49:12;;;;;;;16.45;10.25;;;10.90;1.00;;;;;;4974525;28;20042;-81
2023/04/05 11:51:42;;;;;;;15.90;14.02;;;10.90;1.00;;;;;;4978899;28;20502;-81
2023/04/05 11:54:11;;;;;;;24.17;21.77;;;10.90;1.00;;;;;;4977734;28;20050;-82
2023/04/05 11:56:36;;;;;;;20.75;11.65;;;11.00;1.00;;;;;;4993717;28;20042;-82
2023/04/05 11:59:02;;;;;;;15.57;13.98;;;10.90;1.00;;;;;;4969929;28;20050;-81
2023/04/05 12:01:28;;;;;;;16.10;13.85;;;11.00;1.00;;;;;;4976921;28;20034;-81
2023/04/05 12:03:55;;;;;;;14.05;12.55;;;11.00;1.00;;;;;;4998409;28;20035;-81
2023/04/05 12:06:25;;;;;;;13.70;11.68;;;11.80;1.00;;;;;;4985830;28;20042;-81
2023/04/05 12:08:54;;;;;;;16.70;11.88;;;10.80;1.00;;;;;;4985185;28;20038;-82
2023/04/05 12:11:24;;;;;;;14.05;11.30;;;10.80;1.00;;;;;;4963248;28;20132;-82
2023/04/05 12:13:54;;;;;;;14.38;12.95;;;10.80;1.00;;;;;;4990316;28;20034;-81
2023/04/05 12:16:20;;;;;;;15.70;13.32;;;10.90;1.00;;;;;;4989247;28;20046;-81
2023/04/05 12:18:53;;;;;;;16.23;14.57;;;11.10;1.00;;;;;;4990425;28;20056;-81
2023/04/05 12:21:19;;;;;;;14.88;12.45;;;11.30;1.00;;;;;;4989620;28;20099;-81
2023/04/05 12:23:45;;;;;;;12.82;10.95;;;11.20;1.00;;;;;;4992989;28;20037;-81
2023/04/05 12:26:11;;;;;;;15.90;9.13;;;11.10;1.00;;;;;;4992382;28;20387;-81
2023/04/05 12:28:50;;;;;;;14.80;9.43;;;11.00;1.00;;;;;;4986941;28;20049;-81
2023/04/05 12:31:15;;;;;;;16.42;10.18;;;10.90;1.00;;;;;;4975826;28;20041;-81
2023/04/05 12:33:42;;;;;;;14.35;12.85;;;10.80;1.00;;;;;;4971913;28;20061;-81
2023/04/05 12:36:10;;;;;;;15.30;13.77;;;10.90;1.00;;;;;;4978876;28;20049;-82
2023/04/05 12:38:37;;;;;;;14.73;12.45;;;11.10;1.00;;;;;;4992154;28;20053;-82
2023/04/05 12:41:03;;;;;;;13.55;8.00;;;11.10;1.00;;;;;;4992506;28;20081;-82
2023/04/05 12:43:42;;;;;;;12.45;10.63;;;11.00;1.00;;;;;;4976130;28;20061;-81
2023/04/05 12:46:16;;;;;;;12.38;10.82;;;11.10;1.00;;;;;;4990341;28;20104;-81